sensor_id;sensor_type;location;lat;lon;timestamp;P1;durP1;ratioP1;P2;durP2;ratioP2
46110;SDS011;31849;55.992;37.252;2023-08-01T00:03:43;12.18;;;7.40;;
46110;SDS011;31849;55.992;37.252;2023-08-01T00:08:47;11.60;;;7.25;;
46110;SDS011;31849;55.992;37.252;2023-08-01T00:13:50;16.47;;;7.73;;
46110;SDS011;31849;55.992;37.252;2023-08-01T00:18:55;17.07;;;8.07;;
46110;SDS011;31849;55.992;37.252;2023-08-01T00:23:59;12.55;;;7.25;;
46110;SDS011;31849;55.992;37.252;2023-08-01T00:29:02;12.10;;;7.50;;
46110;SDS011;31849;55.992;37.252;2023-08-01T00:34:07;9.60;;;7.20;;
46110;SDS011;31849;55.992;37.252;2023-08-01T00:39:11;11.88;;;6.95;;
46110;SDS011;31849;55.992;37.252;2023-08-01T00:44:14;12.43;;;6.60;;
46110;SDS011;31849;55.992;37.252;2023-08-01T00:49:19;11.40;;;7.63;;
46110;SDS011;31849;55.992;37.252;2023-08-01T00:54:23;11.05;;;7.10;;
46110;SDS011;31849;55.992;37.252;2023-08-01T00:59:27;13.52;;;6.93;;
46110;SDS011;31849;55.992;37.252;2023-08-01T01:04:32;13.55;;;6.72;;
46110;SDS011;31849;55.992;37.252;2023-08-01T01:09:35;13.48;;;6.95;;
46110;SDS011;31849;55.992;37.252;2023-08-01T01:14:39;11.57;;;7.63;;
46110;SDS011;31849;55.992;37.252;2023-08-01T01:19:44;9.60;;;6.40;;
46110;SDS011;31849;55.992;37.252;2023-08-01T01:24:49;13.57;;;7.18;;
46110;SDS011;31849;55.992;37.252;2023-08-01T01:29:55;13.73;;;7.32;;
46110;SDS011;31849;55.992;37.252;2023-08-01T01:34:58;12.27;;;7.33;;
46110;SDS011;31849;55.992;37.252;2023-08-01T01:40:06;14.02;;;7.68;;
46110;SDS011;31849;55.992;37.252;2023-08-01T01:45:10;10.27;;;7.28;;
46110;SDS011;31849;55.992;37.252;2023-08-01T01:50:14;12.13;;;8.07;;
46110;SDS011;31849;55.992;37.252;2023-08-01T01:55:19;12.37;;;8.10;;
46110;SDS011;31849;55.992;37.252;2023-08-01T02:00:22;16.40;;;9.25;;
46110;SDS011;31849;55.992;37.252;2023-08-01T02:05:26;22.97;;;13.10;;
46110;SDS011;31849;55.992;37.252;2023-08-01T02:10:31;16.58;;;10.48;;
46110;SDS011;31849;55.992;37.252;2023-08-01T02:15:35;20.35;;;12.43;;
46110;SDS011;31849;55.992;37.252;2023-08-01T02:20:39;15.07;;;10.80;;
46110;SDS011;31849;55.992;37.252;2023-08-01T02:25:43;14.03;;;9.77;;
46110;SDS011;31849;55.992;37.252;2023-08-01T02:30:47;13.20;;;8.70;;
46110;SDS011;31849;55.992;37.252;2023-08-01T02:35:52;15.07;;;8.48;;
46110;SDS011;31849;55.992;37.252;2023-08-01T02:40:57;13.17;;;7.97;;
46110;SDS011;31849;55.992;37.252;2023-08-01T02:46:01;16.25;;;8.77;;
46110;SDS011;31849;55.992;37.252;2023-08-01T02:51:04;20.90;;;9.43;;
46110;SDS011;31849;55.992;37.252;2023-08-01T02:56:12;22.00;;;13.70;;
46110;SDS011;31849;55.992;37.252;2023-08-01T03:01:15;21.13;;;8.73;;
46110;SDS011;31849;55.992;37.252;2023-08-01T03:06:19;21.40;;;8.47;;
46110;SDS011;31849;55.992;37.252;2023-08-01T03:11:24;15.40;;;8.27;;
46110;SDS011;31849;55.992;37.252;2023-08-01T03:16:28;11.93;;;7.95;;
46110;SDS011;31849;55.992;37.252;2023-08-01T03:21:32;16.63;;;8.00;;
46110;SDS011;31849;55.992;37.252;2023-08-01T03:26:37;14.43;;;9.07;;
46110;SDS011;31849;55.992;37.252;2023-08-01T03:31:41;20.88;;;9.80;;
46110;SDS011;31849;55.992;37.252;2023-08-01T03:36:45;21.25;;;9.13;;
46110;SDS011;31849;55.992;37.252;2023-08-01T03:41:50;13.23;;;8.90;;
46110;SDS011;31849;55.992;37.252;2023-08-01T03:46:54;16.00;;;9.57;;
46110;SDS011;31849;55.992;37.252;2023-08-01T03:51:57;15.48;;;8.50;;
46110;SDS011;31849;55.992;37.252;2023-08-01T03:57:03;12.95;;;8.00;;
46110;SDS011;31849;55.992;37.252;2023-08-01T04:02:07;12.95;;;8.05;;
46110;SDS011;31849;55.992;37.252;2023-08-01T04:07:10;12.02;;;8.23;;
46110;SDS011;31849;55.992;37.252;2023-08-01T04:12:15;11.25;;;7.90;;
46110;SDS011;31849;55.992;37.252;2023-08-01T04:17:19;12.23;;;7.47;;
46110;SDS011;31849;55.992;37.252;2023-08-01T04:22:22;10.30;;;7.10;;
46110;SDS011;31849;55.992;37.252;2023-08-01T04:27:28;10.23;;;7.47;;
46110;SDS011;31849;55.992;37.252;2023-08-01T04:32:31;10.93;;;7.22;;
46110;SDS011;31849;55.992;37.252;2023-08-01T04:37:35;10.25;;;6.85;;
46110;SDS011;31849;55.992;37.252;2023-08-01T04:42:40;9.02;;;6.32;;
46110;SDS011;31849;55.992;37.252;2023-08-01T04:47:43;6.70;;;5.90;;
46110;SDS011;31849;55.992;37.252;2023-08-01T04:52:47;5.65;;;5.05;;
46110;SDS011;31849;55.992;37.252;2023-08-01T04:57:52;8.68;;;5.50;;
46110;SDS011;31849;55.992;37.252;2023-08-01T05:02:55;5.68;;;4.55;;
46110;SDS011;31849;55.992;37.252;2023-08-01T05:07:59;6.28;;;4.70;;
46110;SDS011;31849;55.992;37.252;2023-08-01T05:13:04;6.47;;;4.18;;
46110;SDS011;31849;55.992;37.252;2023-08-01T05:18:08;4.80;;;4.18;;
46110;SDS011;31849;55.992;37.252;2023-08-01T05:23:11;6.22;;;4.30;;
46110;SDS011;31849;55.992;37.252;2023-08-01T05:28:16;5.07;;;4.10;;
46110;SDS011;31849;55.992;37.252;2023-08-01T05:33:20;4.97;;;4.15;;
46110;SDS011;31849;55.992;37.252;2023-08-01T05:38:24;6.60;;;3.67;;
46110;SDS011;31849;55.992;37.252;2023-08-01T05:43:28;5.13;;;4.10;;
46110;SDS011;31849;55.992;37.252;2023-08-01T05:48:32;5.15;;;3.60;;
46110;SDS011;31849;55.992;37.252;2023-08-01T05:53:36;6.15;;;3.50;;
46110;SDS011;31849;55.992;37.252;2023-08-01T05:58:41;5.55;;;3.50;;
46110;SDS011;31849;55.992;37.252;2023-08-01T06:03:44;5.50;;;3.80;;
46110;SDS011;31849;55.992;37.252;2023-08-01T06:08:48;4.72;;;3.50;;
46110;SDS011;31849;55.992;37.252;2023-08-01T06:13:54;6.50;;;3.80;;
46110;SDS011;31849;55.992;37.252;2023-08-01T06:18:59;5.13;;;3.70;;
46110;SDS011;31849;55.992;37.252;2023-08-01T06:24:03;5.13;;;4.03;;
46110;SDS011;31849;55.992;37.252;2023-08-01T06:29:08;4.93;;;3.60;;
46110;SDS011;31849;55.992;37.252;2023-08-01T06:34:12;3.95;;;3.38;;
46110;SDS011;31849;55.992;37.252;2023-08-01T06:39:15;4.80;;;3.75;;
46110;SDS011;31849;55.992;37.252;2023-08-01T06:44:20;4.95;;;3.70;;
46110;SDS011;31849;55.992;37.252;2023-08-01T06:49:24;4.32;;;3.90;;
46110;SDS011;31849;55.992;37.252;2023-08-01T06:54:28;5.40;;;4.03;;
46110;SDS011;31849;55.992;37.252;2023-08-01T06:59:33;5.72;;;3.90;;
46110;SDS011;31849;55.992;37.252;2023-08-01T07:04:36;5.03;;;3.50;;
46110;SDS011;31849;55.992;37.252;2023-08-01T07:09:40;5.18;;;3.78;;
46110;SDS011;31849;55.992;37.252;2023-08-01T07:14:45;4.95;;;3.40;;
46110;SDS011;31849;55.992;37.252;2023-08-01T07:19:49;4.00;;;3.60;;
46110;SDS011;31849;55.992;37.252;2023-08-01T07:24:52;5.07;;;3.30;;
46110;SDS011;31849;55.992;37.252;2023-08-01T07:29:58;4.90;;;3.60;;
46110;SDS011;31849;55.992;37.252;2023-08-01T07:35:01;4.78;;;3.70;;
46110;SDS011;31849;55.992;37.252;2023-08-01T07:40:05;4.07;;;3.30;;
46110;SDS011;31849;55.992;37.252;2023-08-01T07:45:11;3.75;;;3.30;;
46110;SDS011;31849;55.992;37.252;2023-08-01T07:50:15;4.55;;;3.67;;
46110;SDS011;31849;55.992;37.252;2023-08-01T07:55:18;3.65;;;3.35;;
46110;SDS011;31849;55.992;37.252;2023-08-01T08:00:24;5.55;;;3.45;;
46110;SDS011;31849;55.992;37.252;2023-08-01T08:05:28;3.90;;;2.90;;
46110;SDS011;31849;55.992;37.252;2023-08-01T08:10:31;3.50;;;3.13;;
46110;SDS011;31849;55.992;37.252;2023-08-01T08:15:37;4.40;;;3.80;;
46110;SDS011;31849;55.992;37.252;2023-08-01T08:20:43;4.72;;;3.53;;
46110;SDS011;31849;55.992;37.252;2023-08-01T08:25:48;4.22;;;3.10;;
46110;SDS011;31849;55.992;37.252;2023-08-01T08:30:54;3.92;;;2.97;;
46110;SDS011;31849;55.992;37.252;2023-08-01T08:35:58;4.63;;;3.10;;
46110;SDS011;31849;55.992;37.252;2023-08-01T08:41:05;6.43;;;3.22;;
46110;SDS011;31849;55.992;37.252;2023-08-01T08:46:14;4.63;;;3.22;;
46110;SDS011;31849;55.992;37.252;2023-08-01T08:51:18;4.65;;;3.30;;
46110;SDS011;31849;55.992;37.252;2023-08-01T08:56:24;4.28;;;3.60;;
46110;SDS011;31849;55.992;37.252;2023-08-01T09:01:29;5.47;;;3.33;;
46110;SDS011;31849;55.992;37.252;2023-08-01T09:06:34;6.40;;;3.80;;
46110;SDS011;31849;55.992;37.252;2023-08-01T09:11:44;5.28;;;3.97;;
46110;SDS011;31849;55.992;37.252;2023-08-01T09:16:50;5.70;;;3.25;;
46110;SDS011;31849;55.992;37.252;2023-08-01T09:21:54;5.75;;;3.70;;
46110;SDS011;31849;55.992;37.252;2023-08-01T09:27:02;5.13;;;3.30;;
46110;SDS011;31849;55.992;37.252;2023-08-01T09:32:17;5.80;;;3.47;;
46110;SDS011;31849;55.992;37.252;2023-08-01T09:37:21;4.82;;;3.20;;
46110;SDS011;31849;55.992;37.252;2023-08-01T09:42:25;3.92;;;3.30;;
46110;SDS011;31849;55.992;37.252;2023-08-01T09:47:36;5.78;;;3.45;;
46110;SDS011;31849;55.992;37.252;2023-08-01T09:52:40;4.57;;;2.90;;
46110;SDS011;31849;55.992;37.252;2023-08-01T09:57:43;3.83;;;3.22;;
46110;SDS011;31849;55.992;37.252;2023-08-01T10:02:53;5.53;;;3.47;;
46110;SDS011;31849;55.992;37.252;2023-08-01T10:08:02;4.95;;;3.30;;
46110;SDS011;31849;55.992;37.252;2023-08-01T10:13:06;6.40;;;3.45;;
46110;SDS011;31849;55.992;37.252;2023-08-01T10:18:13;5.50;;;3.40;;
46110;SDS011;31849;55.992;37.252;2023-08-01T10:23:17;4.18;;;3.13;;
46110;SDS011;31849;55.992;37.252;2023-08-01T10:28:30;4.97;;;3.38;;
46110;SDS011;31849;55.992;37.252;2023-08-01T10:33:36;5.68;;;3.30;;
46110;SDS011;31849;55.992;37.252;2023-08-01T10:38:47;6.47;;;3.33;;
46110;SDS011;31849;55.992;37.252;2023-08-01T10:43:51;6.40;;;3.55;;
46110;SDS011;31849;55.992;37.252;2023-08-01T10:48:56;5.43;;;3.10;;
46110;SDS011;31849;55.992;37.252;2023-08-01T10:54:00;6.82;;;3.70;;
46110;SDS011;31849;55.992;37.252;2023-08-01T10:59:05;5.68;;;3.35;;
46110;SDS011;31849;55.992;37.252;2023-08-01T11:04:14;5.65;;;3.70;;
46110;SDS011;31849;55.992;37.252;2023-08-01T11:09:18;5.20;;;3.30;;
46110;SDS011;31849;55.992;37.252;2023-08-01T11:14:25;3.58;;;3.20;;
46110;SDS011;31849;55.992;37.252;2023-08-01T11:19:30;5.28;;;3.17;;
46110;SDS011;31849;55.992;37.252;2023-08-01T11:24:34;5.25;;;3.10;;
46110;SDS011;31849;55.992;37.252;2023-08-01T11:29:38;4.50;;;3.63;;
46110;SDS011;31849;55.992;37.252;2023-08-01T11:34:43;6.20;;;3.40;;
46110;SDS011;31849;55.992;37.252;2023-08-01T11:39:51;8.35;;;3.42;;
46110;SDS011;31849;55.992;37.252;2023-08-01T11:44:55;6.13;;;3.53;;
46110;SDS011;31849;55.992;37.252;2023-08-01T11:50:12;5.07;;;3.20;;
46110;SDS011;31849;55.992;37.252;2023-08-01T11:55:20;4.68;;;3.33;;
46110;SDS011;31849;55.992;37.252;2023-08-01T12:00:25;4.93;;;3.45;;
46110;SDS011;31849;55.992;37.252;2023-08-01T12:05:32;5.70;;;3.22;;
46110;SDS011;31849;55.992;37.252;2023-08-01T12:10:39;4.50;;;3.60;;
46110;SDS011;31849;55.992;37.252;2023-08-01T12:15:44;5.28;;;3.47;;
46110;SDS011;31849;55.992;37.252;2023-08-01T12:20:49;4.78;;;3.50;;
46110;SDS011;31849;55.992;37.252;2023-08-01T12:25:52;4.95;;;3.70;;
46110;SDS011;31849;55.992;37.252;2023-08-01T12:30:56;5.97;;;3.38;;
46110;SDS011;31849;55.992;37.252;2023-08-01T12:36:02;6.65;;;3.33;;
46110;SDS011;31849;55.992;37.252;2023-08-01T12:41:06;4.65;;;3.45;;
46110;SDS011;31849;55.992;37.252;2023-08-01T12:46:10;6.88;;;3.75;;
46110;SDS011;31849;55.992;37.252;2023-08-01T12:51:15;5.45;;;3.40;;
46110;SDS011;31849;55.992;37.252;2023-08-01T12:56:18;8.70;;;3.85;;
46110;SDS011;31849;55.992;37.252;2023-08-01T13:01:22;5.82;;;3.90;;
46110;SDS011;31849;55.992;37.252;2023-08-01T13:06:27;5.57;;;4.10;;
46110;SDS011;31849;55.992;37.252;2023-08-01T13:11:31;5.25;;;3.92;;
46110;SDS011;31849;55.992;37.252;2023-08-01T13:16:34;7.32;;;4.13;;
46110;SDS011;31849;55.992;37.252;2023-08-01T13:21:39;5.65;;;3.65;;
46110;SDS011;31849;55.992;37.252;2023-08-01T13:26:43;6.32;;;3.75;;
46110;SDS011;31849;55.992;37.252;2023-08-01T13:31:47;4.63;;;4.00;;
46110;SDS011;31849;55.992;37.252;2023-08-01T13:36:54;6.25;;;4.00;;
46110;SDS011;31849;55.992;37.252;2023-08-01T13:41:58;5.55;;;3.92;;
46110;SDS011;31849;55.992;37.252;2023-08-01T13:47:02;6.75;;;3.97;;
46110;SDS011;31849;55.992;37.252;2023-08-01T13:52:07;6.18;;;4.22;;
46110;SDS011;31849;55.992;37.252;2023-08-01T13:57:11;6.93;;;3.92;;
46110;SDS011;31849;55.992;37.252;2023-08-01T14:02:15;4.70;;;3.67;;
46110;SDS011;31849;55.992;37.252;2023-08-01T14:07:20;4.88;;;3.75;;
46110;SDS011;31849;55.992;37.252;2023-08-01T14:12:23;5.30;;;3.67;;
46110;SDS011;31849;55.992;37.252;2023-08-01T14:17:28;4.80;;;3.92;;
46110;SDS011;31849;55.992;37.252;2023-08-01T14:22:33;6.53;;;3.90;;
46110;SDS011;31849;55.992;37.252;2023-08-01T14:27:36;6.00;;;3.80;;
46110;SDS011;31849;55.992;37.252;2023-08-01T14:32:40;5.53;;;4.10;;
46110;SDS011;31849;55.992;37.252;2023-08-01T14:37:45;7.60;;;3.70;;
46110;SDS011;31849;55.992;37.252;2023-08-01T14:42:50;5.18;;;3.75;;
46110;SDS011;31849;55.992;37.252;2023-08-01T14:47:54;9.68;;;4.07;;
46110;SDS011;31849;55.992;37.252;2023-08-01T14:52:59;6.13;;;3.92;;
46110;SDS011;31849;55.992;37.252;2023-08-01T14:58:04;4.85;;;3.60;;
46110;SDS011;31849;55.992;37.252;2023-08-01T15:03:08;4.90;;;3.67;;
46110;SDS011;31849;55.992;37.252;2023-08-01T15:08:13;6.40;;;3.80;;
46110;SDS011;31849;55.992;37.252;2023-08-01T15:13:17;6.78;;;3.95;;
46110;SDS011;31849;55.992;37.252;2023-08-01T15:18:21;8.45;;;4.03;;
46110;SDS011;31849;55.992;37.252;2023-08-01T15:23:26;7.90;;;4.05;;
46110;SDS011;31849;55.992;37.252;2023-08-01T15:28:30;8.10;;;3.78;;
46110;SDS011;31849;55.992;37.252;2023-08-01T15:33:34;7.57;;;4.60;;
46110;SDS011;31849;55.992;37.252;2023-08-01T15:38:40;8.20;;;4.18;;
46110;SDS011;31849;55.992;37.252;2023-08-01T15:43:43;5.82;;;4.00;;
46110;SDS011;31849;55.992;37.252;2023-08-01T15:48:47;7.68;;;4.68;;
46110;SDS011;31849;55.992;37.252;2023-08-01T15:53:52;6.63;;;4.10;;
46110;SDS011;31849;55.992;37.252;2023-08-01T15:58:55;5.05;;;4.07;;
46110;SDS011;31849;55.992;37.252;2023-08-01T16:04:00;7.80;;;4.10;;
46110;SDS011;31849;55.992;37.252;2023-08-01T16:09:05;8.05;;;4.07;;
46110;SDS011;31849;55.992;37.252;2023-08-01T16:14:09;8.52;;;4.55;;
46110;SDS011;31849;55.992;37.252;2023-08-01T16:19:12;8.20;;;4.40;;
46110;SDS011;31849;55.992;37.252;2023-08-01T16:29:20;6.93;;;4.55;;
46110;SDS011;31849;55.992;37.252;2023-08-01T16:34:24;10.48;;;4.47;;
46110;SDS011;31849;55.992;37.252;2023-08-01T16:39:29;9.40;;;4.72;;
46110;SDS011;31849;55.992;37.252;2023-08-01T16:44:33;17.23;;;5.15;;
46110;SDS011;31849;55.992;37.252;2023-08-01T16:49:37;15.27;;;7.85;;
46110;SDS011;31849;55.992;37.252;2023-08-01T16:54:42;17.05;;;7.18;;
46110;SDS011;31849;55.992;37.252;2023-08-01T16:59:46;11.52;;;6.65;;
46110;SDS011;31849;55.992;37.252;2023-08-01T17:04:49;9.38;;;5.82;;
46110;SDS011;31849;55.992;37.252;2023-08-01T17:09:54;13.00;;;5.97;;
46110;SDS011;31849;55.992;37.252;2023-08-01T17:14:59;10.40;;;5.78;;
46110;SDS011;31849;55.992;37.252;2023-08-01T17:20:07;9.60;;;5.50;;
46110;SDS011;31849;55.992;37.252;2023-08-01T17:25:12;9.55;;;5.40;;
46110;SDS011;31849;55.992;37.252;2023-08-01T17:30:16;10.15;;;6.00;;
46110;SDS011;31849;55.992;37.252;2023-08-01T17:40:24;12.52;;;5.47;;
46110;SDS011;31849;55.992;37.252;2023-08-01T17:45:28;10.63;;;5.97;;
46110;SDS011;31849;55.992;37.252;2023-08-01T17:50:31;8.13;;;5.18;;
46110;SDS011;31849;55.992;37.252;2023-08-01T18:00:41;13.63;;;5.35;;
46110;SDS011;31849;55.992;37.252;2023-08-01T18:10:50;11.75;;;6.22;;
46110;SDS011;31849;55.992;37.252;2023-08-01T18:15:53;7.45;;;5.40;;
46110;SDS011;31849;55.992;37.252;2023-08-01T18:20:57;12.25;;;6.00;;
46110;SDS011;31849;55.992;37.252;2023-08-01T18:26:02;10.60;;;5.90;;
46110;SDS011;31849;55.992;37.252;2023-08-01T18:31:06;9.30;;;6.50;;
46110;SDS011;31849;55.992;37.252;2023-08-01T18:36:11;10.38;;;6.00;;
46110;SDS011;31849;55.992;37.252;2023-08-01T18:41:16;10.75;;;6.55;;
46110;SDS011;31849;55.992;37.252;2023-08-01T18:46:21;8.98;;;6.53;;
46110;SDS011;31849;55.992;37.252;2023-08-01T18:51:25;18.23;;;7.18;;
46110;SDS011;31849;55.992;37.252;2023-08-01T18:56:30;12.85;;;6.63;;
46110;SDS011;31849;55.992;37.252;2023-08-01T19:01:34;10.73;;;6.82;;
46110;SDS011;31849;55.992;37.252;2023-08-01T19:06:38;12.30;;;7.30;;
46110;SDS011;31849;55.992;37.252;2023-08-01T19:21:50;11.85;;;7.53;;
46110;SDS011;31849;55.992;37.252;2023-08-01T19:26:55;14.40;;;8.02;;
46110;SDS011;31849;55.992;37.252;2023-08-01T19:31:59;13.07;;;7.78;;
46110;SDS011;31849;55.992;37.252;2023-08-01T19:37:02;13.40;;;8.98;;
46110;SDS011;31849;55.992;37.252;2023-08-01T19:42:08;11.77;;;8.45;;
46110;SDS011;31849;55.992;37.252;2023-08-01T19:47:12;13.05;;;8.23;;
46110;SDS011;31849;55.992;37.252;2023-08-01T19:52:16;13.48;;;8.13;;
46110;SDS011;31849;55.992;37.252;2023-08-01T19:57:21;13.38;;;8.70;;
46110;SDS011;31849;55.992;37.252;2023-08-01T20:02:24;13.23;;;10.02;;
46110;SDS011;31849;55.992;37.252;2023-08-01T20:07:28;10.38;;;8.93;;
46110;SDS011;31849;55.992;37.252;2023-08-01T20:12:33;15.65;;;10.68;;
46110;SDS011;31849;55.992;37.252;2023-08-01T20:17:37;16.30;;;10.15;;
46110;SDS011;31849;55.992;37.252;2023-08-01T20:22:42;11.10;;;8.43;;
46110;SDS011;31849;55.992;37.252;2023-08-01T20:32:51;15.45;;;9.18;;
46110;SDS011;31849;55.992;37.252;2023-08-01T20:37:55;19.80;;;8.70;;
46110;SDS011;31849;55.992;37.252;2023-08-01T20:43:00;16.20;;;9.20;;
46110;SDS011;31849;55.992;37.252;2023-08-01T20:48:03;14.95;;;10.27;;
46110;SDS011;31849;55.992;37.252;2023-08-01T20:53:11;17.23;;;9.90;;
46110;SDS011;31849;55.992;37.252;2023-08-01T20:58:16;18.27;;;9.73;;
46110;SDS011;31849;55.992;37.252;2023-08-01T21:03:20;15.57;;;10.18;;
46110;SDS011;31849;55.992;37.252;2023-08-01T21:08:24;15.60;;;8.43;;
46110;SDS011;31849;55.992;37.252;2023-08-01T21:13:29;20.15;;;10.38;;
46110;SDS011;31849;55.992;37.252;2023-08-01T21:18:33;14.63;;;9.70;;
46110;SDS011;31849;55.992;37.252;2023-08-01T21:23:38;16.52;;;10.35;;
46110;SDS011;31849;55.992;37.252;2023-08-01T21:28:43;20.30;;;10.68;;
46110;SDS011;31849;55.992;37.252;2023-08-01T21:33:47;15.20;;;9.60;;
46110;SDS011;31849;55.992;37.252;2023-08-01T21:38:50;20.15;;;9.02;;
46110;SDS011;31849;55.992;37.252;2023-08-01T21:43:55;13.90;;;9.43;;
46110;SDS011;31849;55.992;37.252;2023-08-01T21:48:59;13.68;;;10.43;;
46110;SDS011;31849;55.992;37.252;2023-08-01T21:54:02;14.48;;;9.77;;
46110;SDS011;31849;55.992;37.252;2023-08-01T21:59:09;16.25;;;10.23;;
46110;SDS011;31849;55.992;37.252;2023-08-01T22:04:13;16.08;;;10.32;;
46110;SDS011;31849;55.992;37.252;2023-08-01T22:09:16;17.23;;;10.98;;
46110;SDS011;31849;55.992;37.252;2023-08-01T22:14:21;14.40;;;10.00;;
46110;SDS011;31849;55.992;37.252;2023-08-01T22:19:25;18.45;;;10.18;;
46110;SDS011;31849;55.992;37.252;2023-08-01T22:24:28;18.33;;;9.17;;
46110;SDS011;31849;55.992;37.252;2023-08-01T22:29:33;14.48;;;9.52;;
46110;SDS011;31849;55.992;37.252;2023-08-01T22:34:37;13.68;;;10.00;;
46110;SDS011;31849;55.992;37.252;2023-08-01T22:39:40;16.03;;;10.47;;
46110;SDS011;31849;55.992;37.252;2023-08-01T22:44:45;17.58;;;11.02;;
46110;SDS011;31849;55.992;37.252;2023-08-01T22:49:49;20.55;;;11.38;;
46110;SDS011;31849;55.992;37.252;2023-08-01T22:55:06;16.65;;;10.07;;
46110;SDS011;31849;55.992;37.252;2023-08-01T23:00:12;15.43;;;9.48;;
46110;SDS011;31849;55.992;37.252;2023-08-01T23:05:16;18.05;;;8.60;;
46110;SDS011;31849;55.992;37.252;2023-08-01T23:10:20;12.93;;;9.13;;
46110;SDS011;31849;55.992;37.252;2023-08-01T23:15:46;12.00;;;9.90;;
46110;SDS011;31849;55.992;37.252;2023-08-01T23:20:49;24.15;;;10.05;;
46110;SDS011;31849;55.992;37.252;2023-08-01T23:26:02;18.02;;;10.35;;
46110;SDS011;31849;55.992;37.252;2023-08-01T23:31:08;19.60;;;11.45;;
46110;SDS011;31849;55.992;37.252;2023-08-01T23:36:13;18.38;;;10.95;;
46110;SDS011;31849;55.992;37.252;2023-08-01T23:41:16;20.23;;;10.30;;
46110;SDS011;31849;55.992;37.252;2023-08-01T23:46:22;14.83;;;9.47;;
46110;SDS011;31849;55.992;37.252;2023-08-01T23:51:26;16.88;;;9.63;;
46110;SDS011;31849;55.992;37.252;2023-08-01T23:56:31;20.90;;;10.57;;
